createdAt,value
2022-11-30T07:12:35.817Z,46.35
2022-11-30T07:13:35.514Z,46.55
2022-11-30T07:14:35.454Z,46.35
2022-11-30T07:15:35.416Z,46.45
2022-11-30T07:19:19.383Z,46.55
2022-11-30T07:20:20.325Z,46.75
2022-11-30T07:21:20.405Z,46.65
2022-11-30T07:22:20.332Z,46.25
2022-11-30T07:23:20.308Z,46.25
2022-11-30T07:24:20.295Z,45.95
2022-11-30T07:25:20.310Z,45.95
2022-11-30T07:26:20.247Z,46.15
2022-11-30T07:27:20.281Z,46.05
2022-11-30T07:28:20.252Z,45.95
2022-11-30T07:29:20.290Z,46.25
2022-11-30T07:30:20.204Z,46.05
2022-11-30T07:31:20.344Z,46.05
2022-11-30T07:32:20.199Z,46.15
2022-11-30T07:33:20.209Z,46.25
2022-11-30T07:34:20.207Z,46.25
2022-11-30T07:35:20.192Z,46.25
2022-11-30T07:36:20.170Z,46.25
2022-11-30T07:37:20.199Z,46.05
2022-11-30T07:38:20.137Z,46.25
2022-11-30T07:39:20.173Z,46.05
2022-11-30T07:40:20.100Z,46.15
2022-11-30T07:41:20.122Z,45.95
2022-11-30T07:42:20.112Z,45.95
2022-11-30T07:43:20.105Z,46.05
2022-11-30T07:44:20.166Z,45.95
2022-11-30T07:45:20.108Z,46.15
2022-11-30T07:46:20.121Z,45.95
2022-11-30T07:47:20.092Z,45.85
2022-11-30T07:48:20.019Z,45.75
2022-11-30T07:49:20.045Z,45.95
2022-11-30T07:50:20.026Z,46.05
2022-11-30T07:51:20.046Z,46.55
2022-11-30T07:52:20.005Z,46.55
2022-11-30T07:53:20.017Z,46.35
2022-11-30T07:54:19.953Z,46.75
2022-11-30T07:55:19.993Z,46.05
2022-11-30T07:56:19.948Z,46.15
2022-11-30T07:57:19.954Z,46.05
2022-11-30T07:58:19.933Z,46.05
2022-11-30T07:59:19.953Z,46.35
2022-11-30T08:00:19.889Z,46.35
2022-11-30T08:01:20.041Z,46.15
2022-11-30T08:02:20.078Z,45.85
2022-11-30T08:03:19.891Z,45.63
2022-11-30T08:04:19.892Z,45.75
2022-11-30T08:05:19.896Z,45.65
2022-11-30T08:06:19.852Z,45.55
2022-11-30T08:07:19.942Z,45.53
2022-11-30T08:08:19.806Z,45.33
2022-11-30T08:09:20.956Z,45.43
2022-11-30T08:10:19.813Z,45.23
2022-11-30T08:11:19.802Z,45.53
2022-11-30T08:12:19.787Z,45.14
2022-11-30T08:13:19.989Z,45.33
2022-11-30T08:14:19.748Z,45.33
2022-11-30T08:15:21.238Z,45.33
2022-11-30T08:16:19.830Z,45.33
2022-11-30T08:17:19.764Z,45.14
2022-11-30T08:18:19.720Z,45.23
2022-11-30T08:19:19.745Z,45.15
2022-11-30T08:20:19.676Z,45.06
2022-11-30T08:21:19.730Z,45.15
2022-11-30T08:22:19.686Z,45.03
2022-11-30T08:23:19.674Z,44.93
2022-11-30T08:24:19.736Z,44.84
2022-11-30T08:25:19.711Z,44.74
2022-11-30T08:26:19.641Z,44.74
2022-11-30T08:27:19.814Z,44.84
2022-11-30T08:28:19.607Z,44.84
2022-11-30T08:29:19.618Z,44.76
2022-11-30T08:30:19.628Z,44.74
2022-11-30T08:31:19.682Z,44.76
2022-11-30T08:32:19.549Z,44.54
2022-11-30T08:33:19.570Z,44.74
2022-11-30T08:34:19.556Z,44.74
2022-11-30T08:35:19.548Z,44.64
2022-11-30T08:36:19.548Z,44.74
2022-11-30T08:37:19.552Z,44.54
2022-11-30T08:38:19.485Z,44.44
2022-11-30T08:39:19.557Z,44.54
2022-11-30T08:40:19.466Z,44.64
2022-11-30T08:41:19.486Z,44.64
2022-11-30T08:42:19.473Z,44.54
2022-11-30T08:43:19.476Z,44.54
2022-11-30T08:44:19.450Z,44.34
2022-11-30T08:45:19.468Z,44.54
2022-11-30T08:47:19.532Z,44.44
2022-11-30T08:48:19.458Z,44.44
2022-11-30T08:49:22.552Z,44.44
2022-11-30T08:50:19.383Z,44.64
2022-11-30T08:51:19.372Z,44.34
2022-11-30T08:52:19.435Z,44.14
2022-11-30T08:53:19.326Z,44.34
2022-11-30T08:54:19.376Z,44.24
2022-11-30T08:55:19.312Z,44.34
2022-11-30T08:56:19.356Z,44.34
2022-11-30T08:57:19.311Z,44.34
2022-11-30T08:58:19.302Z,44.24
2022-11-30T08:59:19.305Z,44.24
2022-11-30T09:00:19.306Z,44.34
2022-11-30T09:01:19.248Z,44.24
2022-11-30T09:02:19.624Z,44.14
2022-11-30T09:03:19.289Z,44.54
2022-11-30T09:04:19.236Z,44.44
2022-11-30T09:05:19.212Z,44.24
2022-11-30T09:06:19.261Z,44.34
2022-11-30T09:07:19.271Z,44.24
2022-11-30T09:08:19.246Z,44.34
2022-11-30T09:09:19.191Z,44.24
2022-11-30T09:10:19.174Z,44.34
2022-11-30T09:11:19.169Z,44.24
2022-11-30T09:12:19.156Z,44.04
2022-11-30T09:13:19.124Z,44.04
2022-11-30T09:14:19.170Z,44.14
2022-11-30T09:15:19.204Z,44.04
2022-11-30T09:16:19.273Z,44.14
2022-11-30T09:17:19.095Z,44.14
2022-11-30T09:18:19.102Z,44.24
2022-11-30T09:19:19.060Z,44.44
2022-11-30T09:20:19.239Z,44.64
2022-11-30T09:21:19.098Z,44.74
2022-11-30T09:22:19.066Z,44.84
2022-11-30T09:23:19.059Z,44.84
2022-11-30T09:24:19.032Z,44.84
2022-11-30T09:25:19.026Z,45.03
2022-11-30T09:26:19.029Z,45.03
2022-11-30T09:27:18.971Z,45.03
2022-11-30T09:28:19.012Z,45.03
2022-11-30T09:29:19.044Z,45.03
2022-11-30T09:30:19.073Z,45.03
2022-11-30T09:31:18.976Z,45.03
2022-11-30T09:32:18.954Z,45.03
2022-11-30T09:33:18.913Z,45.14
2022-11-30T09:34:19.022Z,45.03
2022-11-30T09:35:18.913Z,45.14
2022-11-30T09:36:18.984Z,45.14
2022-11-30T09:37:18.878Z,45.14
2022-11-30T09:38:18.916Z,45.23
2022-11-30T09:39:18.872Z,45.14
2022-11-30T09:40:18.887Z,45.14
2022-11-30T09:41:18.842Z,45.14
2022-11-30T09:42:18.893Z,45.23
2022-11-30T09:43:18.825Z,45.53
2022-11-30T09:44:18.817Z,45.53
2022-11-30T09:45:18.786Z,45.53
2022-11-30T09:46:18.880Z,45.73
2022-11-30T09:47:18.764Z,45.93
2022-11-30T09:48:18.809Z,45.93
2022-11-30T09:49:18.778Z,45.83
2022-11-30T09:50:18.802Z,45.73
2022-11-30T09:51:18.737Z,45.73
2022-11-30T09:52:18.727Z,45.63
2022-11-30T09:53:18.689Z,45.63
2022-11-30T09:54:18.744Z,45.53
2022-11-30T09:55:18.674Z,45.53
2022-11-30T09:56:18.712Z,45.43
2022-11-30T09:57:18.673Z,45.41
2022-11-30T09:58:18.674Z,45.31
2022-11-30T09:59:18.658Z,45.31
2022-11-30T10:00:19.230Z,45.21
2022-11-30T10:01:18.782Z,45.21
2022-11-30T10:02:18.814Z,45.11
2022-11-30T10:03:18.643Z,45.11
2022-11-30T10:04:18.630Z,45.11
2022-11-30T10:05:18.616Z,45.01
2022-11-30T10:06:18.586Z,45.01
2022-11-30T10:07:18.583Z,44.89
2022-11-30T10:08:18.591Z,44.89
2022-11-30T10:09:18.548Z,44.89
2022-11-30T10:10:34.138Z,44.89
2022-11-30T10:11:18.532Z,44.89
2022-11-30T10:12:18.572Z,44.79
2022-11-30T10:13:18.498Z,44.79
2022-11-30T10:14:18.527Z,44.70
2022-11-30T10:15:18.466Z,44.70
2022-11-30T10:16:18.765Z,44.70
2022-11-30T10:17:18.466Z,44.70
2022-11-30T10:18:18.545Z,44.59
2022-11-30T10:19:18.445Z,44.59
2022-11-30T10:20:18.442Z,44.59
2022-11-30T10:21:18.404Z,44.57
2022-11-30T10:22:18.442Z,44.57
2022-11-30T10:23:18.399Z,44.57
2022-11-30T10:24:18.477Z,44.48
2022-11-30T10:25:18.385Z,44.48
2022-11-30T10:26:18.397Z,44.48
2022-11-30T10:27:18.330Z,44.48
2022-11-30T10:28:45.565Z,44.48
2022-11-30T10:29:18.384Z,44.48
2022-11-30T10:30:18.435Z,44.48
2022-11-30T10:31:18.385Z,44.48
2022-11-30T10:32:18.314Z,44.48
2022-11-30T10:33:18.317Z,44.48
2022-11-30T10:34:18.311Z,44.37
2022-11-30T10:35:18.260Z,44.37
2022-11-30T10:36:18.291Z,44.37
2022-11-30T10:37:18.269Z,44.37
2022-11-30T10:38:18.250Z,44.37
2022-11-30T10:39:18.202Z,44.37
2022-11-30T10:40:18.250Z,44.37
2022-11-30T10:41:18.208Z,44.37
2022-11-30T10:42:18.210Z,44.37
2022-11-30T10:43:18.187Z,44.27
2022-11-30T10:44:18.176Z,44.37
2022-11-30T10:45:18.153Z,44.27
2022-11-30T10:46:18.215Z,44.35
2022-11-30T10:47:18.150Z,44.25
2022-11-30T10:48:18.178Z,44.25
2022-11-30T10:49:18.343Z,44.25
2022-11-30T10:50:18.123Z,44.25
2022-11-30T10:51:18.109Z,44.25
2022-11-30T10:52:18.096Z,44.35
2022-11-30T10:53:18.058Z,44.25
2022-11-30T10:54:18.102Z,44.25
2022-11-30T10:55:18.036Z,44.25
2022-11-30T10:56:18.079Z,44.25
2022-11-30T10:57:18.040Z,44.25
2022-11-30T10:58:18.032Z,44.25
2022-11-30T10:59:18.025Z,44.25
2022-11-30T11:00:18.012Z,44.25
2022-11-30T11:01:18.023Z,44.25
2022-11-30T11:02:18.070Z,44.25
2022-11-30T11:03:17.952Z,44.15
2022-11-30T11:04:18.084Z,44.25
2022-11-30T11:05:17.974Z,44.25
2022-11-30T11:06:17.964Z,44.25
2022-11-30T11:07:18.105Z,44.15
2022-11-30T11:08:18.002Z,44.25
2022-11-30T11:09:18.088Z,44.25
2022-11-30T11:10:17.939Z,44.25
2022-11-30T11:11:17.890Z,44.25
2022-11-30T11:12:17.885Z,44.15
2022-11-30T11:13:17.843Z,44.15
2022-11-30T11:14:17.962Z,44.15
2022-11-30T11:15:17.884Z,44.15
2022-11-30T11:16:17.938Z,44.25
2022-11-30T11:17:17.879Z,44.15
2022-11-30T11:18:17.831Z,44.15
2022-11-30T11:19:17.829Z,44.15
2022-11-30T11:20:17.807Z,44.15
2022-11-30T11:21:17.760Z,44.15
2022-11-30T11:22:17.808Z,44.15
2022-11-30T11:23:17.742Z,44.15
2022-11-30T11:24:17.781Z,44.15
2022-11-30T11:25:17.754Z,44.15
2022-11-30T11:26:17.737Z,44.15
2022-11-30T11:27:17.718Z,44.13
2022-11-30T11:28:17.741Z,44.15
2022-11-30T11:29:17.708Z,44.15
2022-11-30T11:30:17.701Z,44.13
2022-11-30T11:31:17.769Z,44.13
2022-11-30T11:32:17.766Z,44.15
2022-11-30T11:33:17.651Z,44.13
2022-11-30T11:34:17.675Z,44.13
2022-11-30T11:35:17.617Z,44.13
2022-11-30T11:36:17.659Z,44.13
2022-11-30T11:37:17.622Z,44.13
2022-11-30T11:38:17.606Z,44.13
2022-11-30T11:39:17.635Z,44.13
2022-11-30T11:40:17.588Z,44.13
2022-11-30T11:41:17.550Z,44.13
2022-11-30T11:42:20.643Z,44.13
2022-11-30T11:43:17.557Z,44.13
2022-11-30T11:44:17.544Z,44.13
2022-11-30T11:45:17.537Z,44.13
2022-11-30T11:46:17.590Z,44.13
2022-11-30T11:47:17.515Z,44.13
2022-11-30T11:48:17.586Z,44.13
2022-11-30T11:49:17.493Z,44.13
2022-11-30T11:50:20.865Z,44.23
2022-11-30T11:51:17.489Z,44.23
2022-11-30T11:52:17.462Z,44.23
2022-11-30T11:53:17.565Z,44.23
2022-11-30T11:54:17.595Z,44.23
2022-11-30T11:55:17.401Z,44.23
2022-11-30T11:56:17.445Z,44.23
2022-11-30T11:57:17.410Z,44.23
2022-11-30T11:58:17.411Z,44.23
2022-11-30T11:59:17.385Z,44.23
2022-11-30T12:00:17.527Z,44.23
2022-11-30T12:01:39.122Z,44.23
2022-11-30T12:02:17.458Z,44.23
2022-11-30T12:03:17.348Z,44.23
2022-11-30T12:04:17.505Z,44.23
2022-11-30T12:05:17.324Z,44.33
2022-11-30T12:06:17.318Z,44.23
2022-11-30T12:07:18.360Z,44.23
2022-11-30T12:08:17.307Z,44.23
2022-11-30T12:09:17.259Z,44.23
2022-11-30T12:10:50.144Z,44.23
2022-11-30T12:11:17.244Z,44.23
2022-11-30T12:12:17.278Z,44.23
2022-11-30T12:13:17.241Z,44.33
2022-11-30T12:14:17.365Z,44.23
2022-11-30T12:15:17.219Z,44.23
2022-11-30T12:16:17.365Z,44.33
2022-11-30T12:17:17.224Z,44.33
2022-11-30T12:18:22.265Z,44.33
2022-11-30T12:19:17.210Z,44.33
2022-11-30T12:20:17.164Z,44.33
2022-11-30T12:21:17.132Z,44.33
2022-11-30T12:22:17.167Z,44.33
2022-11-30T12:23:17.109Z,44.33
2022-11-30T12:24:17.194Z,44.33
2022-11-30T12:25:17.118Z,44.33
2022-11-30T12:26:17.100Z,44.33
2022-11-30T12:27:17.087Z,44.33
2022-11-30T12:28:17.134Z,44.33
2022-11-30T12:29:17.043Z,44.33
2022-11-30T12:30:17.095Z,44.33
2022-11-30T12:31:17.085Z,44.33
2022-11-30T12:32:17.038Z,44.33
2022-11-30T12:33:16.997Z,44.33
2022-11-30T12:34:17.043Z,44.33
2022-11-30T12:35:17.009Z,44.23
2022-11-30T12:36:17.031Z,44.33
2022-11-30T12:37:16.987Z,44.33
2022-11-30T12:38:16.976Z,44.23
2022-11-30T12:39:16.962Z,44.33
2022-11-30T12:40:16.958Z,44.33
2022-11-30T12:41:16.918Z,44.33
2022-11-30T12:42:16.963Z,44.33
2022-11-30T12:43:16.931Z,44.23
2022-11-30T12:44:17.626Z,44.33
2022-11-30T12:45:16.901Z,44.33
2022-11-30T12:46:16.940Z,44.33
2022-11-30T12:47:16.875Z,44.33
2022-11-30T12:48:16.900Z,44.33
2022-11-30T12:49:16.914Z,44.33
2022-11-30T12:50:16.883Z,44.33
2022-11-30T12:51:16.844Z,44.33
2022-11-30T12:52:16.908Z,44.33
2022-11-30T12:53:16.792Z,44.33
2022-11-30T12:54:16.834Z,44.33
2022-11-30T12:55:16.773Z,44.33
2022-11-30T12:56:16.818Z,44.23
2022-11-30T12:57:16.777Z,44.31
2022-11-30T12:58:16.769Z,44.23
2022-11-30T12:59:16.755Z,44.33
2022-11-30T13:00:16.748Z,44.31
2022-11-30T13:01:16.786Z,44.33
2022-11-30T13:02:16.898Z,44.33
2022-11-30T13:03:16.745Z,44.33
2022-11-30T13:04:16.714Z,44.33
2022-11-30T13:05:16.702Z,44.33
2022-11-30T13:06:16.688Z,44.33
2022-11-30T13:07:16.671Z,44.33
2022-11-30T13:08:16.660Z,44.33
2022-11-30T13:09:16.682Z,44.31
2022-11-30T13:10:17.052Z,44.33
2022-11-30T13:11:16.686Z,44.33
2022-11-30T13:12:16.597Z,44.31
2022-11-30T13:13:16.616Z,44.33
2022-11-30T13:14:16.594Z,44.31
2022-11-30T13:15:16.594Z,44.31
2022-11-30T13:16:16.659Z,44.33
2022-11-30T13:17:16.652Z,44.31
2022-11-30T13:18:16.530Z,44.31
2022-11-30T13:19:16.546Z,44.33
2022-11-30T13:20:16.537Z,44.33
2022-11-30T13:21:16.555Z,44.31
2022-11-30T13:22:16.485Z,44.31
2022-11-30T13:23:16.531Z,44.33
2022-11-30T13:24:16.471Z,44.31
2022-11-30T13:25:16.498Z,44.31
2022-11-30T13:26:16.478Z,44.31
2022-11-30T13:27:16.526Z,44.31
2022-11-30T13:28:16.448Z,44.31
2022-11-30T13:29:16.599Z,44.31
2022-11-30T13:30:16.406Z,44.31
2022-11-30T13:31:16.665Z,44.31
2022-11-30T13:32:55.466Z,44.31
2022-11-30T13:33:16.545Z,44.31
2022-11-30T13:34:16.406Z,44.31
2022-11-30T13:35:16.419Z,44.31
2022-11-30T13:36:16.444Z,44.31
2022-11-30T13:37:16.365Z,44.31
2022-11-30T13:39:16.484Z,44.31
2022-11-30T13:40:16.336Z,44.31
2022-11-30T13:41:16.343Z,44.31
2022-11-30T13:42:16.313Z,44.31
2022-11-30T13:43:16.320Z,44.31
2022-11-30T13:44:16.253Z,44.31
2022-11-30T13:45:16.280Z,44.31
2022-11-30T13:46:16.457Z,44.31
2022-11-30T13:47:16.256Z,44.21
2022-11-30T13:48:16.242Z,44.31
2022-11-30T13:49:16.262Z,44.31
2022-11-30T13:50:16.211Z,44.31
2022-11-30T13:51:16.208Z,44.31
2022-11-30T13:52:24.289Z,44.31
2022-11-30T13:53:16.225Z,44.31
2022-11-30T13:54:27.295Z,44.31
2022-11-30T13:55:16.228Z,44.31
2022-11-30T13:56:16.151Z,44.31
2022-11-30T13:57:16.154Z,44.31
2022-11-30T13:58:16.151Z,44.21
2022-11-30T13:59:16.126Z,44.31
2022-11-30T14:00:16.120Z,44.31
2022-11-30T14:01:16.193Z,44.31
2022-11-30T14:02:16.143Z,44.31
2022-11-30T14:03:16.115Z,44.31
2022-11-30T14:04:16.078Z,44.31
2022-11-30T14:05:16.141Z,44.31
2022-11-30T14:06:16.058Z,44.31
2022-11-30T14:07:16.060Z,44.31
2022-11-30T14:08:16.036Z,44.31
2022-11-30T14:09:16.051Z,44.31
2022-11-30T14:10:15.980Z,44.31
2022-11-30T14:11:16.080Z,44.31
2022-11-30T14:12:16.086Z,44.31
2022-11-30T14:13:15.982Z,44.31
2022-11-30T14:14:15.982Z,44.31
2022-11-30T14:15:16.067Z,44.31
2022-11-30T14:16:16.029Z,44.31
2022-11-30T14:17:16.017Z,44.31
2022-11-30T14:18:15.912Z,44.21
2022-11-30T14:19:15.942Z,44.31
2022-11-30T14:20:15.881Z,44.21
2022-11-30T14:21:15.901Z,44.31
2022-11-30T14:22:15.902Z,44.31
2022-11-30T14:23:15.914Z,44.21
2022-11-30T14:24:15.836Z,44.31
2022-11-30T14:25:15.855Z,44.21
2022-11-30T14:26:15.840Z,44.21
2022-11-30T14:27:15.837Z,44.21
2022-11-30T14:28:15.833Z,44.21
2022-11-30T14:29:15.856Z,44.21
2022-11-30T14:30:15.773Z,44.31
2022-11-30T14:31:15.865Z,44.21
2022-11-30T14:32:15.756Z,44.31
2022-11-30T14:33:19.496Z,44.31
2022-11-30T14:34:15.790Z,44.21
2022-11-30T14:35:15.750Z,44.31
2022-11-30T14:36:15.768Z,44.31
2022-11-30T14:37:15.784Z,44.31
2022-11-30T14:38:15.700Z,44.21
2022-11-30T14:39:15.710Z,44.21
2022-11-30T14:40:18.826Z,44.31
2022-11-30T14:41:15.723Z,44.21
2022-11-30T14:42:15.663Z,44.21
2022-11-30T14:43:15.693Z,44.21
2022-11-30T14:44:15.628Z,44.21
2022-11-30T14:45:15.650Z,44.21
2022-11-30T14:46:16.040Z,44.21
2022-11-30T14:47:15.684Z,44.21
2022-11-30T14:48:15.642Z,44.21
2022-11-30T14:49:15.662Z,44.21
2022-11-30T14:50:15.568Z,44.21
2022-11-30T14:51:15.615Z,44.21
2022-11-30T14:52:15.546Z,44.21
2022-11-30T14:53:15.587Z,44.21
2022-11-30T14:54:15.554Z,44.21
2022-11-30T14:55:15.572Z,44.21
2022-11-30T14:56:15.522Z,44.21
2022-11-30T14:57:15.576Z,44.21
2022-11-30T14:58:15.602Z,44.21
2022-11-30T14:59:15.512Z,44.21
2022-11-30T15:00:15.500Z,44.21
2022-11-30T15:01:15.637Z,44.21
2022-11-30T15:02:15.477Z,44.21
2022-11-30T15:03:15.518Z,44.21
2022-11-30T15:04:15.424Z,44.21
2022-11-30T15:05:15.471Z,44.21
2022-11-30T15:06:15.424Z,44.21
2022-11-30T15:07:15.422Z,44.21
2022-11-30T15:08:15.411Z,44.21
2022-11-30T15:09:15.439Z,44.21
2022-11-30T15:10:15.379Z,44.21
2022-11-30T15:11:15.414Z,44.21
2022-11-30T15:12:15.334Z,44.21
2022-11-30T15:13:15.407Z,44.21
2022-11-30T15:14:15.353Z,44.21
2022-11-30T15:15:15.340Z,44.21
2022-11-30T15:16:15.376Z,44.21
2022-11-30T15:17:15.343Z,44.21
2022-11-30T15:18:15.289Z,44.21
2022-11-30T15:19:15.343Z,44.21
2022-11-30T15:20:15.254Z,44.21
2022-11-30T15:21:15.276Z,44.21
2022-11-30T15:22:15.260Z,44.21
2022-11-30T15:23:15.265Z,44.21
2022-11-30T15:24:15.326Z,44.21
2022-11-30T15:25:15.260Z,44.21
2022-11-30T15:26:15.188Z,44.21
2022-11-30T15:27:15.237Z,44.21
2022-11-30T15:28:15.198Z,44.21
2022-11-30T15:29:15.295Z,44.21
2022-11-30T15:30:15.284Z,44.21
2022-11-30T15:31:15.253Z,44.21
2022-11-30T15:32:15.139Z,44.21
2022-11-30T15:33:15.194Z,44.21
2022-11-30T15:34:15.162Z,44.21
2022-11-30T15:35:15.157Z,44.21
2022-11-30T15:37:15.134Z,44.21
2022-11-30T15:38:15.064Z,44.21
2022-11-30T15:39:15.122Z,44.21
2022-11-30T15:40:15.045Z,44.21
2022-11-30T15:41:15.069Z,44.21
2022-11-30T15:42:15.071Z,44.21
2022-11-30T15:43:15.366Z,44.21
2022-11-30T15:44:15.002Z,44.21
2022-11-30T15:45:15.185Z,44.21
2022-11-30T15:46:15.052Z,44.21
2022-11-30T15:47:15.081Z,44.21
2022-11-30T15:48:14.993Z,44.21
2022-11-30T15:49:15.050Z,44.21
2022-11-30T15:50:14.941Z,44.21
2022-11-30T15:51:15.083Z,44.21
2022-11-30T15:52:14.936Z,44.21
2022-11-30T15:53:14.944Z,44.21
2022-11-30T15:54:14.935Z,44.21
2022-11-30T15:55:14.917Z,44.21
2022-11-30T15:56:14.907Z,44.21
2022-11-30T15:57:14.944Z,44.21
2022-11-30T15:58:14.861Z,44.21
2022-11-30T15:59:14.878Z,44.21
2022-11-30T16:00:14.867Z,44.21
2022-11-30T16:01:15.003Z,44.21
2022-11-30T16:02:14.873Z,44.21
2022-11-30T16:03:14.886Z,44.21
2022-11-30T16:04:14.813Z,44.21
2022-11-30T16:05:15.093Z,44.21
2022-11-30T16:06:14.821Z,44.21
2022-11-30T16:07:14.801Z,44.21
2022-11-30T16:08:14.803Z,44.21
2022-11-30T16:09:14.799Z,44.21
2022-11-30T16:10:14.734Z,44.21
2022-11-30T16:11:14.847Z,44.21
2022-11-30T16:12:14.718Z,44.21
2022-11-30T16:13:14.872Z,44.21
2022-11-30T16:14:14.736Z,44.21
2022-11-30T16:15:14.737Z,44.21
2022-11-30T16:16:14.892Z,44.21
2022-11-30T16:17:14.789Z,44.21
2022-11-30T16:18:14.656Z,44.21
2022-11-30T16:19:14.695Z,44.21
2022-11-30T16:20:14.627Z,44.21
2022-11-30T16:21:14.656Z,44.21
2022-11-30T16:22:14.641Z,44.21
2022-11-30T16:23:14.628Z,44.21
2022-11-30T16:24:14.623Z,44.21
2022-11-30T16:25:14.657Z,44.21
2022-11-30T16:26:43.202Z,44.21
2022-11-30T16:27:14.676Z,44.21
2022-11-30T16:28:14.543Z,44.21
2022-11-30T16:29:14.635Z,44.21
2022-11-30T16:30:14.552Z,44.21
2022-11-30T16:31:14.688Z,44.21
2022-11-30T16:32:14.580Z,44.21
2022-11-30T16:33:14.535Z,44.21
2022-11-30T16:34:14.509Z,44.21
2022-11-30T16:35:14.616Z,44.21
2022-11-30T16:36:14.532Z,44.21
2022-11-30T16:37:14.525Z,44.21
2022-11-30T16:38:14.457Z,44.21
2022-11-30T16:39:14.527Z,44.21
2022-11-30T16:40:14.421Z,44.21
2022-11-30T16:41:14.462Z,44.21
2022-11-30T16:42:14.429Z,44.11
2022-11-30T16:43:14.419Z,44.21
2022-11-30T16:44:14.413Z,44.11
2022-11-30T16:45:14.431Z,44.11
2022-11-30T16:46:14.396Z,44.11
2022-11-30T16:47:14.394Z,44.11
2022-11-30T16:48:14.372Z,44.21
2022-11-30T16:49:14.380Z,43.82
2022-11-30T16:50:14.332Z,43.62
2022-11-30T16:51:14.401Z,43.91
2022-11-30T16:52:14.308Z,43.82
2022-11-30T16:53:14.322Z,44.31
2022-11-30T16:54:14.369Z,44.81
2022-11-30T16:55:14.297Z,45.03
2022-11-30T16:56:14.286Z,45.12
2022-11-30T16:57:14.466Z,45.23
2022-11-30T16:58:14.266Z,45.12
2022-11-30T16:59:16.797Z,45.23
2022-11-30T17:00:14.214Z,45.42
2022-11-30T17:01:14.266Z,45.45
2022-11-30T17:02:14.261Z,45.45
2022-11-30T17:03:14.234Z,45.34
2022-11-30T17:04:14.177Z,44.95
2022-11-30T17:05:14.200Z,44.95
2022-11-30T17:06:14.171Z,44.75
2022-11-30T17:07:14.185Z,44.95
2022-11-30T17:08:14.164Z,44.85
2022-11-30T17:09:14.168Z,44.75
2022-11-30T17:10:14.136Z,44.65
2022-11-30T17:11:14.151Z,44.65
2022-11-30T17:12:14.127Z,44.55
2022-11-30T17:13:14.110Z,44.85
2022-11-30T17:14:14.101Z,44.75
2022-11-30T17:15:14.087Z,44.75
2022-11-30T17:16:14.126Z,44.77
2022-11-30T17:17:14.165Z,44.67
2022-11-30T17:18:14.105Z,45.07
2022-11-30T17:19:14.044Z,44.77
2022-11-30T17:20:14.079Z,44.77
2022-11-30T17:21:14.022Z,44.67
2022-11-30T17:22:14.050Z,44.67
2022-11-30T17:23:13.973Z,44.67
2022-11-30T17:24:14.098Z,44.67
2022-11-30T17:25:13.992Z,44.57
2022-11-30T17:26:14.046Z,45.07
2022-11-30T17:27:14.053Z,44.97
2022-11-30T17:28:13.952Z,44.77
2022-11-30T17:29:13.934Z,44.97
2022-11-30T17:30:13.946Z,44.57
2022-11-30T17:31:13.933Z,44.67
2022-11-30T17:32:13.927Z,44.67
2022-11-30T17:33:13.889Z,44.97
2022-11-30T17:34:13.911Z,45.17
2022-11-30T17:35:13.888Z,45.17
2022-11-30T17:36:14.008Z,45.07
2022-11-30T17:37:14.145Z,44.97
2022-11-30T17:38:13.870Z,45.07
2022-11-30T17:39:13.845Z,44.77
2022-11-30T17:40:13.910Z,44.67
2022-11-30T17:41:18.479Z,45.07
2022-11-30T17:42:14.042Z,45.37
2022-11-30T17:43:13.948Z,45.27
2022-11-30T17:44:13.926Z,45.27
2022-11-30T17:45:13.761Z,45.07
2022-11-30T17:46:13.897Z,45.37
2022-11-30T17:47:13.873Z,44.67
2022-11-30T17:48:13.734Z,44.67
2022-11-30T17:49:13.695Z,45.07
2022-11-30T17:50:13.819Z,44.97
2022-11-30T17:51:13.912Z,45.37
2022-11-30T17:52:13.699Z,45.47
2022-11-30T17:53:17.984Z,45.27
2022-11-30T17:54:13.799Z,45.27
2022-11-30T17:55:13.671Z,45.27
2022-11-30T17:56:13.680Z,45.17
2022-11-30T17:57:15.596Z,45.27
2022-11-30T17:58:13.664Z,45.07
2022-11-30T17:59:13.638Z,44.97
2022-11-30T18:00:13.610Z,44.77
2022-11-30T18:01:13.741Z,45.07
2022-11-30T18:02:13.854Z,45.37
2022-11-30T18:03:13.549Z,45.37
2022-11-30T18:04:13.604Z,44.87
2022-11-30T18:05:13.584Z,44.87
2022-11-30T18:06:14.130Z,44.87
2022-11-30T18:07:13.581Z,44.97
2022-11-30T18:08:13.600Z,45.07
2022-11-30T18:09:13.614Z,45.27
2022-11-30T18:10:13.500Z,45.47
2022-11-30T18:11:13.598Z,45.27
2022-11-30T18:12:13.523Z,44.97
2022-11-30T18:13:13.509Z,45.37
2022-11-30T18:14:13.490Z,44.97
2022-11-30T18:15:13.531Z,44.87
2022-11-30T18:16:13.648Z,45.27
2022-11-30T18:17:13.453Z,44.89
2022-11-30T18:18:13.444Z,45.17
2022-11-30T18:19:13.418Z,45.07
2022-11-30T18:20:13.457Z,45.27
2022-11-30T18:21:13.802Z,45.56
2022-11-30T18:22:13.414Z,44.77
2022-11-30T18:23:13.487Z,44.97
2022-11-30T18:24:13.455Z,44.97
2022-11-30T18:25:13.372Z,45.19
2022-11-30T18:26:13.335Z,44.89
2022-11-30T18:27:13.320Z,45.09
2022-11-30T18:28:13.307Z,45.09
2022-11-30T18:29:13.360Z,45.07
2022-11-30T18:30:13.331Z,44.87
2022-11-30T18:31:13.501Z,45.29
2022-11-30T18:32:13.297Z,45.47
2022-11-30T18:33:13.257Z,45.27
2022-11-30T18:34:13.245Z,45.49
2022-11-30T18:35:13.258Z,45.27
2022-11-30T18:36:13.222Z,45.09
2022-11-30T18:37:13.289Z,45.07
2022-11-30T18:38:13.254Z,45.39
2022-11-30T18:39:13.230Z,45.29
2022-11-30T18:40:13.228Z,45.19
2022-11-30T18:41:13.139Z,45.09
2022-11-30T18:42:13.245Z,45.29
2022-11-30T18:43:13.158Z,45.19
2022-11-30T18:44:13.185Z,45.19
2022-11-30T18:45:13.182Z,45.09
2022-11-30T18:46:13.161Z,45.19
2022-11-30T18:47:13.102Z,44.99
2022-11-30T18:48:13.110Z,45.49
2022-11-30T18:49:13.063Z,44.79
2022-11-30T18:50:13.168Z,44.89
2022-11-30T18:51:13.062Z,45.09
2022-11-30T18:52:13.076Z,45.49
2022-11-30T18:53:18.094Z,44.89
2022-11-30T18:54:13.072Z,44.99
2022-11-30T18:55:13.037Z,45.59
2022-11-30T18:56:13.093Z,45.68
2022-11-30T18:57:13.099Z,45.29
2022-11-30T18:58:12.985Z,45.29
2022-11-30T18:59:13.048Z,45.49
2022-11-30T19:00:12.980Z,45.29
2022-11-30T19:01:12.991Z,45.19
2022-11-30T19:02:13.027Z,45.09
2022-11-30T19:03:12.913Z,45.07
2022-11-30T19:04:12.963Z,45.07
2022-11-30T19:05:13.630Z,45.27
2022-11-30T19:06:12.909Z,45.37
2022-11-30T19:07:12.925Z,45.47
2022-11-30T19:08:12.890Z,45.27
2022-11-30T19:09:12.958Z,45.67
2022-11-30T19:10:12.887Z,45.56
2022-11-30T19:11:12.930Z,45.47
2022-11-30T19:12:12.844Z,45.47
2022-11-30T19:13:12.813Z,45.27
2022-11-30T19:14:12.947Z,45.67
2022-11-30T19:15:12.786Z,45.07
2022-11-30T19:16:12.982Z,45.07
2022-11-30T19:17:12.844Z,44.77
2022-11-30T19:18:12.776Z,45.27
2022-11-30T19:19:12.785Z,45.07
2022-11-30T19:20:12.787Z,45.27
2022-11-30T19:21:12.725Z,45.37
2022-11-30T19:22:12.764Z,45.86
2022-11-30T19:23:12.695Z,45.96
2022-11-30T19:24:12.879Z,45.96
2022-11-30T19:25:17.730Z,45.27
2022-11-30T19:26:12.698Z,45.27
2022-11-30T19:27:12.682Z,45.07
2022-11-30T19:28:12.682Z,44.97
2022-11-30T19:29:12.842Z,44.77
2022-11-30T19:30:12.683Z,45.17
2022-11-30T19:31:12.695Z,44.87
2022-11-30T19:32:12.664Z,44.57
2022-11-30T19:33:12.620Z,45.37
2022-11-30T19:34:13.520Z,45.76
2022-11-30T19:35:12.617Z,45.96
2022-11-30T19:36:12.616Z,46.06
2022-11-30T19:37:12.769Z,46.08
2022-11-30T19:38:12.765Z,46.28
2022-11-30T19:39:12.573Z,45.98
2022-11-30T19:40:12.696Z,45.98
2022-11-30T19:41:12.620Z,46.08
2022-11-30T19:42:12.536Z,46.19
2022-11-30T19:43:12.594Z,46.08
2022-11-30T19:44:12.552Z,46.28
2022-11-30T19:45:12.650Z,46.19
2022-11-30T19:46:12.627Z,46.28
2022-11-30T19:47:12.644Z,46.28
2022-11-30T19:48:12.555Z,46.28
2022-11-30T19:49:12.503Z,46.28
2022-11-30T19:50:12.483Z,46.38
2022-11-30T19:51:16.447Z,46.38
2022-11-30T19:52:12.510Z,46.38
2022-11-30T19:53:12.431Z,46.38
2022-11-30T19:54:12.407Z,46.38
2022-11-30T19:55:12.478Z,46.38
2022-11-30T19:56:12.391Z,46.48
2022-11-30T19:57:12.869Z,46.38
2022-11-30T19:58:12.531Z,46.48
2022-11-30T19:59:12.370Z,46.19
2022-11-30T20:00:12.360Z,45.79
2022-11-30T20:01:12.391Z,46.19
2022-11-30T20:02:12.502Z,46.28
2022-11-30T20:03:12.338Z,46.48
2022-11-30T20:04:12.319Z,46.38
2022-11-30T20:05:12.277Z,46.68
2022-11-30T20:06:12.340Z,46.68
2022-11-30T20:07:12.258Z,46.68
2022-11-30T20:08:12.439Z,46.68
2022-11-30T20:09:12.217Z,46.78
2022-11-30T20:10:12.260Z,46.78